sensor_id;sensor_type;location;lat;lon;timestamp;temperature;humidity
13928;DHT22;7036;50.834;4.718;2024-03-02T00:01:55;19.30;53.30
13928;DHT22;7036;50.834;4.718;2024-03-02T00:04:23;19.30;53.20
13928;DHT22;7036;50.834;4.718;2024-03-02T00:06:52;19.30;53.30
13928;DHT22;7036;50.834;4.718;2024-03-02T00:09:19;19.30;53.30
13928;DHT22;7036;50.834;4.718;2024-03-02T00:11:47;19.30;53.30
13928;DHT22;7036;50.834;4.718;2024-03-02T00:14:15;19.30;53.30
13928;DHT22;7036;50.834;4.718;2024-03-02T00:16:43;19.30;53.30
13928;DHT22;7036;50.834;4.718;2024-03-02T00:19:11;19.20;53.20
13928;DHT22;7036;50.834;4.718;2024-03-02T00:21:39;19.20;53.20
13928;DHT22;7036;50.834;4.718;2024-03-02T00:24:12;19.20;53.00
13928;DHT22;7036;50.834;4.718;2024-03-02T00:26:34;19.20;53.10
13928;DHT22;7036;50.834;4.718;2024-03-02T00:29:02;19.20;53.30
13928;DHT22;7036;50.834;4.718;2024-03-02T00:31:29;19.20;53.20
13928;DHT22;7036;50.834;4.718;2024-03-02T00:33:57;19.20;53.20
13928;DHT22;7036;50.834;4.718;2024-03-02T00:36:26;19.20;53.30
13928;DHT22;7036;50.834;4.718;2024-03-02T00:38:53;19.20;53.10
13928;DHT22;7036;50.834;4.718;2024-03-02T00:41:29;19.20;53.20
13928;DHT22;7036;50.834;4.718;2024-03-02T00:43:57;19.20;53.10
13928;DHT22;7036;50.834;4.718;2024-03-02T00:46:23;19.20;53.10
13928;DHT22;7036;50.834;4.718;2024-03-02T00:49:00;19.20;53.20
13928;DHT22;7036;50.834;4.718;2024-03-02T00:51:28;19.20;53.20
13928;DHT22;7036;50.834;4.718;2024-03-02T00:53:54;19.20;53.10
13928;DHT22;7036;50.834;4.718;2024-03-02T00:56:21;19.20;53.80
13928;DHT22;7036;50.834;4.718;2024-03-02T00:58:49;19.20;53.10
13928;DHT22;7036;50.834;4.718;2024-03-02T01:01:16;19.10;53.00
13928;DHT22;7036;50.834;4.718;2024-03-02T01:03:44;19.10;53.10
13928;DHT22;7036;50.834;4.718;2024-03-02T01:06:12;19.10;53.70
13928;DHT22;7036;50.834;4.718;2024-03-02T01:08:40;19.10;53.20
13928;DHT22;7036;50.834;4.718;2024-03-02T01:11:08;19.10;53.20
13928;DHT22;7036;50.834;4.718;2024-03-02T01:13:36;19.10;53.10
13928;DHT22;7036;50.834;4.718;2024-03-02T01:16:03;19.10;53.00
13928;DHT22;7036;50.834;4.718;2024-03-02T01:18:31;19.10;53.00
13928;DHT22;7036;50.834;4.718;2024-03-02T01:20:58;19.10;53.20
13928;DHT22;7036;50.834;4.718;2024-03-02T01:23:26;19.10;53.10
13928;DHT22;7036;50.834;4.718;2024-03-02T01:25:54;19.10;53.20
13928;DHT22;7036;50.834;4.718;2024-03-02T01:28:21;19.10;53.00
13928;DHT22;7036;50.834;4.718;2024-03-02T01:30:49;19.10;52.50
13928;DHT22;7036;50.834;4.718;2024-03-02T01:33:19;19.00;53.00
13928;DHT22;7036;50.834;4.718;2024-03-02T01:35:45;19.10;53.00
13928;DHT22;7036;50.834;4.718;2024-03-02T01:38:13;19.00;52.90
13928;DHT22;7036;50.834;4.718;2024-03-02T01:40:41;19.00;53.00
13928;DHT22;7036;50.834;4.718;2024-03-02T01:43:08;19.00;52.90
13928;DHT22;7036;50.834;4.718;2024-03-02T01:45:35;19.00;53.00
13928;DHT22;7036;50.834;4.718;2024-03-02T01:48:06;19.00;53.20
13928;DHT22;7036;50.834;4.718;2024-03-02T01:50:33;19.00;53.00
13928;DHT22;7036;50.834;4.718;2024-03-02T01:53:00;19.00;53.00
13928;DHT22;7036;50.834;4.718;2024-03-02T01:55:27;19.00;53.00
13928;DHT22;7036;50.834;4.718;2024-03-02T01:57:55;19.00;53.50
13928;DHT22;7036;50.834;4.718;2024-03-02T02:00:23;19.00;53.00
13928;DHT22;7036;50.834;4.718;2024-03-02T02:02:51;19.00;53.10
13928;DHT22;7036;50.834;4.718;2024-03-02T02:05:18;19.00;53.00
13928;DHT22;7036;50.834;4.718;2024-03-02T02:07:46;19.00;52.40
13928;DHT22;7036;50.834;4.718;2024-03-02T02:10:13;18.90;52.90
13928;DHT22;7036;50.834;4.718;2024-03-02T02:12:40;18.90;52.90
13928;DHT22;7036;50.834;4.718;2024-03-02T02:15:26;18.90;52.90
13928;DHT22;7036;50.834;4.718;2024-03-02T02:17:53;18.90;52.90
13928;DHT22;7036;50.834;4.718;2024-03-02T02:20:20;18.90;52.90
13928;DHT22;7036;50.834;4.718;2024-03-02T02:23:00;18.90;52.60
13928;DHT22;7036;50.834;4.718;2024-03-02T02:25:27;18.90;53.00
13928;DHT22;7036;50.834;4.718;2024-03-02T02:27:53;18.90;52.90
13928;DHT22;7036;50.834;4.718;2024-03-02T02:30:21;18.90;52.90
13928;DHT22;7036;50.834;4.718;2024-03-02T02:32:49;18.90;53.10
13928;DHT22;7036;50.834;4.718;2024-03-02T02:35:15;18.80;52.90
13928;DHT22;7036;50.834;4.718;2024-03-02T02:37:43;18.90;53.00
13928;DHT22;7036;50.834;4.718;2024-03-02T02:40:10;18.90;52.90
13928;DHT22;7036;50.834;4.718;2024-03-02T02:42:38;18.80;53.10
13928;DHT22;7036;50.834;4.718;2024-03-02T02:45:06;18.80;52.90
13928;DHT22;7036;50.834;4.718;2024-03-02T02:47:33;18.80;52.90
13928;DHT22;7036;50.834;4.718;2024-03-02T02:50:03;18.80;52.90
13928;DHT22;7036;50.834;4.718;2024-03-02T02:52:33;18.80;52.90
13928;DHT22;7036;50.834;4.718;2024-03-02T02:55:05;18.80;52.90
13928;DHT22;7036;50.834;4.718;2024-03-02T02:57:34;18.80;52.90
13928;DHT22;7036;50.834;4.718;2024-03-02T03:00:02;18.80;52.90
13928;DHT22;7036;50.834;4.718;2024-03-02T03:02:28;18.80;52.90
13928;DHT22;7036;50.834;4.718;2024-03-02T03:04:55;18.80;52.90
13928;DHT22;7036;50.834;4.718;2024-03-02T03:07:23;18.80;52.90
13928;DHT22;7036;50.834;4.718;2024-03-02T03:09:50;18.80;52.90
13928;DHT22;7036;50.834;4.718;2024-03-02T03:12:17;18.80;52.90
13928;DHT22;7036;50.834;4.718;2024-03-02T03:14:44;18.80;52.90
13928;DHT22;7036;50.834;4.718;2024-03-02T03:17:12;18.80;52.80
13928;DHT22;7036;50.834;4.718;2024-03-02T03:19:39;18.70;52.80
13928;DHT22;7036;50.834;4.718;2024-03-02T03:22:06;18.80;52.80
13928;DHT22;7036;50.834;4.718;2024-03-02T03:24:33;18.70;52.80
13928;DHT22;7036;50.834;4.718;2024-03-02T03:27:01;18.70;52.80
13928;DHT22;7036;50.834;4.718;2024-03-02T03:29:28;18.80;52.80
13928;DHT22;7036;50.834;4.718;2024-03-02T03:31:55;18.70;52.80
13928;DHT22;7036;50.834;4.718;2024-03-02T03:34:22;18.70;52.80
13928;DHT22;7036;50.834;4.718;2024-03-02T03:36:50;18.70;52.80
13928;DHT22;7036;50.834;4.718;2024-03-02T03:39:17;18.70;52.80
13928;DHT22;7036;50.834;4.718;2024-03-02T03:41:44;18.70;52.70
13928;DHT22;7036;50.834;4.718;2024-03-02T03:44:12;18.70;52.70
13928;DHT22;7036;50.834;4.718;2024-03-02T03:46:39;18.70;52.60
13928;DHT22;7036;50.834;4.718;2024-03-02T03:49:06;18.70;52.70
13928;DHT22;7036;50.834;4.718;2024-03-02T03:51:33;18.70;52.70
13928;DHT22;7036;50.834;4.718;2024-03-02T03:54:01;18.60;52.60
13928;DHT22;7036;50.834;4.718;2024-03-02T03:56:28;18.60;52.70
13928;DHT22;7036;50.834;4.718;2024-03-02T03:58:55;18.60;53.30
13928;DHT22;7036;50.834;4.718;2024-03-02T04:01:22;18.60;52.70
13928;DHT22;7036;50.834;4.718;2024-03-02T04:03:49;18.60;52.70
13928;DHT22;7036;50.834;4.718;2024-03-02T04:06:17;18.60;53.00
13928;DHT22;7036;50.834;4.718;2024-03-02T04:08:44;18.60;52.70
13928;DHT22;7036;50.834;4.718;2024-03-02T04:11:12;18.60;53.20
13928;DHT22;7036;50.834;4.718;2024-03-02T04:13:40;18.60;52.70
13928;DHT22;7036;50.834;4.718;2024-03-02T04:16:07;18.60;52.70
13928;DHT22;7036;50.834;4.718;2024-03-02T04:18:34;18.60;52.70
13928;DHT22;7036;50.834;4.718;2024-03-02T04:21:01;18.60;52.70
13928;DHT22;7036;50.834;4.718;2024-03-02T04:23:29;18.60;52.70
13928;DHT22;7036;50.834;4.718;2024-03-02T04:25:57;18.60;52.10
13928;DHT22;7036;50.834;4.718;2024-03-02T04:28:24;18.50;52.70
13928;DHT22;7036;50.834;4.718;2024-03-02T04:30:51;18.60;52.70
13928;DHT22;7036;50.834;4.718;2024-03-02T04:33:18;18.60;52.70
13928;DHT22;7036;50.834;4.718;2024-03-02T04:35:46;18.60;52.70
13928;DHT22;7036;50.834;4.718;2024-03-02T04:38:13;18.60;52.00
13928;DHT22;7036;50.834;4.718;2024-03-02T04:40:40;18.60;52.60
13928;DHT22;7036;50.834;4.718;2024-03-02T04:43:08;18.60;52.70
13928;DHT22;7036;50.834;4.718;2024-03-02T04:45:38;18.50;52.60
13928;DHT22;7036;50.834;4.718;2024-03-02T04:48:03;18.50;52.90
13928;DHT22;7036;50.834;4.718;2024-03-02T04:50:31;18.50;52.80
13928;DHT22;7036;50.834;4.718;2024-03-02T04:52:58;18.50;52.70
13928;DHT22;7036;50.834;4.718;2024-03-02T04:55:26;18.50;52.40
13928;DHT22;7036;50.834;4.718;2024-03-02T04:57:56;18.50;52.80
13928;DHT22;7036;50.834;4.718;2024-03-02T05:00:22;18.50;52.70
13928;DHT22;7036;50.834;4.718;2024-03-02T05:02:50;18.50;52.60
13928;DHT22;7036;50.834;4.718;2024-03-02T05:05:17;18.40;52.60
13928;DHT22;7036;50.834;4.718;2024-03-02T05:07:44;18.50;52.70
13928;DHT22;7036;50.834;4.718;2024-03-02T05:10:11;18.50;52.60
13928;DHT22;7036;50.834;4.718;2024-03-02T05:12:39;18.50;52.60
13928;DHT22;7036;50.834;4.718;2024-03-02T05:15:12;18.40;52.60
13928;DHT22;7036;50.834;4.718;2024-03-02T05:17:39;18.40;52.60
13928;DHT22;7036;50.834;4.718;2024-03-02T05:20:06;18.40;52.60
13928;DHT22;7036;50.834;4.718;2024-03-02T05:22:33;18.40;52.60
13928;DHT22;7036;50.834;4.718;2024-03-02T05:25:02;18.40;52.60
13928;DHT22;7036;50.834;4.718;2024-03-02T05:27:27;18.40;52.60
13928;DHT22;7036;50.834;4.718;2024-03-02T05:29:55;18.40;52.50
13928;DHT22;7036;50.834;4.718;2024-03-02T05:32:22;18.40;52.60
13928;DHT22;7036;50.834;4.718;2024-03-02T05:34:49;18.40;52.60
13928;DHT22;7036;50.834;4.718;2024-03-02T05:37:17;18.40;52.60
13928;DHT22;7036;50.834;4.718;2024-03-02T05:39:44;18.40;52.60
13928;DHT22;7036;50.834;4.718;2024-03-02T05:42:11;18.40;52.60
13928;DHT22;7036;50.834;4.718;2024-03-02T05:44:38;18.40;52.60
13928;DHT22;7036;50.834;4.718;2024-03-02T05:47:06;18.40;52.60
13928;DHT22;7036;50.834;4.718;2024-03-02T05:49:33;18.40;52.60
13928;DHT22;7036;50.834;4.718;2024-03-02T05:52:01;18.40;52.60
13928;DHT22;7036;50.834;4.718;2024-03-02T05:54:28;18.40;52.60
13928;DHT22;7036;50.834;4.718;2024-03-02T05:56:55;18.40;52.60
13928;DHT22;7036;50.834;4.718;2024-03-02T05:59:22;18.30;52.60
13928;DHT22;7036;50.834;4.718;2024-03-02T06:01:49;18.30;52.60
13928;DHT22;7036;50.834;4.718;2024-03-02T06:04:18;18.30;52.60
13928;DHT22;7036;50.834;4.718;2024-03-02T06:06:46;18.30;52.60
13928;DHT22;7036;50.834;4.718;2024-03-02T06:09:13;18.30;52.60
13928;DHT22;7036;50.834;4.718;2024-03-02T06:11:40;18.30;52.60
13928;DHT22;7036;50.834;4.718;2024-03-02T06:14:08;18.30;53.10
13928;DHT22;7036;50.834;4.718;2024-03-02T06:16:36;18.30;52.90
13928;DHT22;7036;50.834;4.718;2024-03-02T06:19:04;18.30;52.90
13928;DHT22;7036;50.834;4.718;2024-03-02T06:21:31;18.40;52.90
13928;DHT22;7036;50.834;4.718;2024-03-02T06:23:59;18.40;53.00
13928;DHT22;7036;50.834;4.718;2024-03-02T06:26:27;18.50;53.20
13928;DHT22;7036;50.834;4.718;2024-03-02T06:28:55;18.50;53.30
13928;DHT22;7036;50.834;4.718;2024-03-02T06:31:23;18.60;53.30
13928;DHT22;7036;50.834;4.718;2024-03-02T06:33:51;18.60;53.30
13928;DHT22;7036;50.834;4.718;2024-03-02T06:36:19;18.60;53.30
13928;DHT22;7036;50.834;4.718;2024-03-02T06:38:47;18.70;53.30
13928;DHT22;7036;50.834;4.718;2024-03-02T06:41:15;18.70;53.40
13928;DHT22;7036;50.834;4.718;2024-03-02T06:43:43;18.70;53.40
13928;DHT22;7036;50.834;4.718;2024-03-02T06:46:11;18.80;53.50
13928;DHT22;7036;50.834;4.718;2024-03-02T06:48:38;18.70;53.30
13928;DHT22;7036;50.834;4.718;2024-03-02T06:51:05;18.80;53.40
13928;DHT22;7036;50.834;4.718;2024-03-02T06:53:33;18.80;53.50
13928;DHT22;7036;50.834;4.718;2024-03-02T06:56:01;18.80;53.50
13928;DHT22;7036;50.834;4.718;2024-03-02T06:58:29;18.90;53.60
13928;DHT22;7036;50.834;4.718;2024-03-02T07:00:58;18.90;53.60
13928;DHT22;7036;50.834;4.718;2024-03-02T07:03:25;18.80;53.40
13928;DHT22;7036;50.834;4.718;2024-03-02T07:05:53;18.90;53.40
13928;DHT22;7036;50.834;4.718;2024-03-02T07:08:20;18.90;53.30
13928;DHT22;7036;50.834;4.718;2024-03-02T07:10:47;18.90;53.60
13928;DHT22;7036;50.834;4.718;2024-03-02T07:13:15;18.90;53.80
13928;DHT22;7036;50.834;4.718;2024-03-02T07:15:43;18.90;53.70
13928;DHT22;7036;50.834;4.718;2024-03-02T07:18:10;18.90;53.70
13928;DHT22;7036;50.834;4.718;2024-03-02T07:20:37;18.90;53.70
13928;DHT22;7036;50.834;4.718;2024-03-02T07:23:05;18.90;53.70
13928;DHT22;7036;50.834;4.718;2024-03-02T07:25:32;18.90;53.70
13928;DHT22;7036;50.834;4.718;2024-03-02T07:27:59;19.00;53.80
13928;DHT22;7036;50.834;4.718;2024-03-02T07:30:27;19.00;53.80
13928;DHT22;7036;50.834;4.718;2024-03-02T07:32:55;19.00;53.90
13928;DHT22;7036;50.834;4.718;2024-03-02T07:35:24;19.00;53.90
13928;DHT22;7036;50.834;4.718;2024-03-02T07:37:51;19.00;53.90
13928;DHT22;7036;50.834;4.718;2024-03-02T07:40:19;19.00;53.80
13928;DHT22;7036;50.834;4.718;2024-03-02T07:42:46;19.00;53.80
13928;DHT22;7036;50.834;4.718;2024-03-02T07:45:14;19.00;53.80
13928;DHT22;7036;50.834;4.718;2024-03-02T07:47:41;19.00;53.70
13928;DHT22;7036;50.834;4.718;2024-03-02T07:50:09;19.00;53.70
13928;DHT22;7036;50.834;4.718;2024-03-02T07:52:36;19.00;53.80
13928;DHT22;7036;50.834;4.718;2024-03-02T07:55:04;19.00;53.90
13928;DHT22;7036;50.834;4.718;2024-03-02T07:57:31;19.00;53.80
13928;DHT22;7036;50.834;4.718;2024-03-02T07:59:58;19.00;53.80
13928;DHT22;7036;50.834;4.718;2024-03-02T08:02:26;19.00;53.70
13928;DHT22;7036;50.834;4.718;2024-03-02T08:04:53;19.00;53.70
13928;DHT22;7036;50.834;4.718;2024-03-02T08:07:20;19.00;53.60
13928;DHT22;7036;50.834;4.718;2024-03-02T08:09:48;19.00;53.80
13928;DHT22;7036;50.834;4.718;2024-03-02T08:12:16;19.00;53.90
13928;DHT22;7036;50.834;4.718;2024-03-02T08:14:43;19.00;53.80
13928;DHT22;7036;50.834;4.718;2024-03-02T08:17:11;19.10;54.00
13928;DHT22;7036;50.834;4.718;2024-03-02T08:19:39;19.00;53.80
13928;DHT22;7036;50.834;4.718;2024-03-02T08:22:07;19.00;53.60
13928;DHT22;7036;50.834;4.718;2024-03-02T08:24:34;19.00;53.40
13928;DHT22;7036;50.834;4.718;2024-03-02T08:27:01;19.00;53.30
13928;DHT22;7036;50.834;4.718;2024-03-02T08:29:28;19.00;53.60
13928;DHT22;7036;50.834;4.718;2024-03-02T08:31:56;19.00;53.70
13928;DHT22;7036;50.834;4.718;2024-03-02T08:34:23;19.10;53.60
13928;DHT22;7036;50.834;4.718;2024-03-02T08:36:51;19.10;53.80
13928;DHT22;7036;50.834;4.718;2024-03-02T08:39:18;19.10;53.90
13928;DHT22;7036;50.834;4.718;2024-03-02T08:41:45;19.10;53.80
13928;DHT22;7036;50.834;4.718;2024-03-02T08:44:12;19.10;53.90
13928;DHT22;7036;50.834;4.718;2024-03-02T08:46:40;19.10;53.90
13928;DHT22;7036;50.834;4.718;2024-03-02T08:49:07;19.10;53.80
13928;DHT22;7036;50.834;4.718;2024-03-02T08:51:35;19.10;54.00
13928;DHT22;7036;50.834;4.718;2024-03-02T08:54:03;19.10;54.00
13928;DHT22;7036;50.834;4.718;2024-03-02T08:56:30;19.10;53.80
13928;DHT22;7036;50.834;4.718;2024-03-02T08:58:57;19.10;53.80
13928;DHT22;7036;50.834;4.718;2024-03-02T09:01:24;19.10;53.80
13928;DHT22;7036;50.834;4.718;2024-03-02T09:03:51;19.10;53.80
13928;DHT22;7036;50.834;4.718;2024-03-02T09:06:19;19.20;54.40
13928;DHT22;7036;50.834;4.718;2024-03-02T09:08:46;19.20;54.20
13928;DHT22;7036;50.834;4.718;2024-03-02T09:11:14;19.20;54.30
13928;DHT22;7036;50.834;4.718;2024-03-02T09:13:42;19.20;54.20
13928;DHT22;7036;50.834;4.718;2024-03-02T09:16:09;19.20;54.20
13928;DHT22;7036;50.834;4.718;2024-03-02T09:18:37;19.20;54.30
13928;DHT22;7036;50.834;4.718;2024-03-02T09:21:04;19.20;54.20
13928;DHT22;7036;50.834;4.718;2024-03-02T09:23:32;19.20;54.50
13928;DHT22;7036;50.834;4.718;2024-03-02T09:26:00;19.20;54.50
13928;DHT22;7036;50.834;4.718;2024-03-02T09:28:27;19.20;54.40
13928;DHT22;7036;50.834;4.718;2024-03-02T09:30:54;19.20;54.50
13928;DHT22;7036;50.834;4.718;2024-03-02T09:33:22;19.20;55.00
13928;DHT22;7036;50.834;4.718;2024-03-02T09:35:49;19.20;55.10
13928;DHT22;7036;50.834;4.718;2024-03-02T09:38:17;19.20;55.30
13928;DHT22;7036;50.834;4.718;2024-03-02T09:40:44;19.20;55.20
13928;DHT22;7036;50.834;4.718;2024-03-02T09:43:11;19.20;55.30
13928;DHT22;7036;50.834;4.718;2024-03-02T09:45:39;19.20;55.40
13928;DHT22;7036;50.834;4.718;2024-03-02T09:48:06;19.20;55.30
13928;DHT22;7036;50.834;4.718;2024-03-02T09:50:34;19.20;55.30
13928;DHT22;7036;50.834;4.718;2024-03-02T09:53:03;19.20;55.30
13928;DHT22;7036;50.834;4.718;2024-03-02T09:55:30;19.20;55.30
13928;DHT22;7036;50.834;4.718;2024-03-02T09:57:57;19.20;55.20
13928;DHT22;7036;50.834;4.718;2024-03-02T10:00:25;19.20;55.20
13928;DHT22;7036;50.834;4.718;2024-03-02T10:02:51;19.20;55.30
13928;DHT22;7036;50.834;4.718;2024-03-02T10:05:25;19.20;55.60
13928;DHT22;7036;50.834;4.718;2024-03-02T10:08:01;19.20;56.10
13928;DHT22;7036;50.834;4.718;2024-03-02T10:10:34;19.20;56.20
13928;DHT22;7036;50.834;4.718;2024-03-02T10:13:05;19.20;56.30
13928;DHT22;7036;50.834;4.718;2024-03-02T10:15:31;19.20;56.30
13928;DHT22;7036;50.834;4.718;2024-03-02T10:17:59;19.20;56.40
13928;DHT22;7036;50.834;4.718;2024-03-02T10:20:27;19.20;56.40
13928;DHT22;7036;50.834;4.718;2024-03-02T10:22:59;19.20;56.30
13928;DHT22;7036;50.834;4.718;2024-03-02T10:25:30;19.20;56.40
13928;DHT22;7036;50.834;4.718;2024-03-02T10:27:59;19.20;56.10
13928;DHT22;7036;50.834;4.718;2024-03-02T10:30:30;19.30;56.10
13928;DHT22;7036;50.834;4.718;2024-03-02T10:32:57;19.20;56.00
13928;DHT22;7036;50.834;4.718;2024-03-02T10:35:25;19.30;56.60
13928;DHT22;7036;50.834;4.718;2024-03-02T10:37:53;19.30;56.30
13928;DHT22;7036;50.834;4.718;2024-03-02T10:40:24;19.30;56.20
13928;DHT22;7036;50.834;4.718;2024-03-02T10:42:50;19.30;56.10
13928;DHT22;7036;50.834;4.718;2024-03-02T10:45:19;19.20;55.90
13928;DHT22;7036;50.834;4.718;2024-03-02T10:47:46;19.20;55.50
13928;DHT22;7036;50.834;4.718;2024-03-02T10:50:13;19.20;55.30
13928;DHT22;7036;50.834;4.718;2024-03-02T10:52:41;19.20;55.10
13928;DHT22;7036;50.834;4.718;2024-03-02T10:55:08;19.20;55.00
13928;DHT22;7036;50.834;4.718;2024-03-02T10:57:40;19.20;54.80
13928;DHT22;7036;50.834;4.718;2024-03-02T11:00:04;19.20;54.80
13928;DHT22;7036;50.834;4.718;2024-03-02T11:02:30;19.20;54.70
13928;DHT22;7036;50.834;4.718;2024-03-02T11:04:58;19.20;54.60
13928;DHT22;7036;50.834;4.718;2024-03-02T11:07:25;19.20;54.50
13928;DHT22;7036;50.834;4.718;2024-03-02T11:09:57;19.20;54.50
13928;DHT22;7036;50.834;4.718;2024-03-02T11:14:54;19.20;54.40
13928;DHT22;7036;50.834;4.718;2024-03-02T11:17:21;19.20;54.40
13928;DHT22;7036;50.834;4.718;2024-03-02T11:19:48;19.20;54.40
13928;DHT22;7036;50.834;4.718;2024-03-02T11:22:15;19.20;54.30
13928;DHT22;7036;50.834;4.718;2024-03-02T11:24:49;19.20;54.30
13928;DHT22;7036;50.834;4.718;2024-03-02T11:27:58;19.20;54.30
13928;DHT22;7036;50.834;4.718;2024-03-02T11:29:43;19.20;54.20
13928;DHT22;7036;50.834;4.718;2024-03-02T11:32:14;19.20;54.20
13928;DHT22;7036;50.834;4.718;2024-03-02T11:34:41;19.20;54.20
13928;DHT22;7036;50.834;4.718;2024-03-02T11:37:08;19.20;54.20
13928;DHT22;7036;50.834;4.718;2024-03-02T11:39:35;19.20;54.20
13928;DHT22;7036;50.834;4.718;2024-03-02T11:42:05;19.20;54.20
13928;DHT22;7036;50.834;4.718;2024-03-02T11:44:30;19.20;54.00
13928;DHT22;7036;50.834;4.718;2024-03-02T11:47:02;19.20;54.10
13928;DHT22;7036;50.834;4.718;2024-03-02T11:49:41;19.20;54.00
13928;DHT22;7036;50.834;4.718;2024-03-02T11:52:08;19.20;54.00
13928;DHT22;7036;50.834;4.718;2024-03-02T11:54:36;19.30;54.00
13928;DHT22;7036;50.834;4.718;2024-03-02T11:57:02;19.20;53.90
13928;DHT22;7036;50.834;4.718;2024-03-02T11:59:30;19.20;54.00
13928;DHT22;7036;50.834;4.718;2024-03-02T12:01:58;19.20;53.90
13928;DHT22;7036;50.834;4.718;2024-03-02T12:04:26;19.20;53.90
13928;DHT22;7036;50.834;4.718;2024-03-02T12:06:57;19.20;53.80
13928;DHT22;7036;50.834;4.718;2024-03-02T12:09:23;19.20;53.70
13928;DHT22;7036;50.834;4.718;2024-03-02T12:12:06;19.30;53.90
13928;DHT22;7036;50.834;4.718;2024-03-02T12:14:33;19.20;53.80
13928;DHT22;7036;50.834;4.718;2024-03-02T12:17:02;19.20;53.80
13928;DHT22;7036;50.834;4.718;2024-03-02T12:19:29;19.20;53.70
13928;DHT22;7036;50.834;4.718;2024-03-02T12:21:57;19.20;53.70
13928;DHT22;7036;50.834;4.718;2024-03-02T12:24:26;19.30;53.70
13928;DHT22;7036;50.834;4.718;2024-03-02T12:26:52;19.20;53.70
13928;DHT22;7036;50.834;4.718;2024-03-02T12:29:20;19.20;53.70
13928;DHT22;7036;50.834;4.718;2024-03-02T12:31:52;19.20;53.70
13928;DHT22;7036;50.834;4.718;2024-03-02T12:34:18;19.20;53.50
13928;DHT22;7036;50.834;4.718;2024-03-02T12:36:49;19.30;53.60
13928;DHT22;7036;50.834;4.718;2024-03-02T12:39:19;19.30;53.60
13928;DHT22;7036;50.834;4.718;2024-03-02T12:41:46;19.20;53.70
13928;DHT22;7036;50.834;4.718;2024-03-02T12:44:14;19.20;53.50
13928;DHT22;7036;50.834;4.718;2024-03-02T12:46:40;19.20;53.50
13928;DHT22;7036;50.834;4.718;2024-03-02T12:49:09;19.20;53.60
13928;DHT22;7036;50.834;4.718;2024-03-02T12:51:35;19.20;53.40
13928;DHT22;7036;50.834;4.718;2024-03-02T12:54:03;19.20;53.60
13928;DHT22;7036;50.834;4.718;2024-03-02T12:56:31;19.20;53.60
13928;DHT22;7036;50.834;4.718;2024-03-02T12:58:59;19.30;53.60
13928;DHT22;7036;50.834;4.718;2024-03-02T13:01:27;19.30;53.60
13928;DHT22;7036;50.834;4.718;2024-03-02T13:03:55;19.30;53.60
13928;DHT22;7036;50.834;4.718;2024-03-02T13:06:23;19.30;53.60
13928;DHT22;7036;50.834;4.718;2024-03-02T13:08:50;19.20;54.10
13928;DHT22;7036;50.834;4.718;2024-03-02T13:11:18;19.20;53.50
13928;DHT22;7036;50.834;4.718;2024-03-02T13:13:46;19.20;53.50
13928;DHT22;7036;50.834;4.718;2024-03-02T13:16:14;19.30;53.60
13928;DHT22;7036;50.834;4.718;2024-03-02T13:18:44;19.30;53.60
13928;DHT22;7036;50.834;4.718;2024-03-02T13:21:11;19.30;53.60
13928;DHT22;7036;50.834;4.718;2024-03-02T13:23:38;19.30;53.50
13928;DHT22;7036;50.834;4.718;2024-03-02T13:26:06;19.30;53.60
13928;DHT22;7036;50.834;4.718;2024-03-02T13:28:34;19.30;53.60
13928;DHT22;7036;50.834;4.718;2024-03-02T13:31:02;19.30;53.60
13928;DHT22;7036;50.834;4.718;2024-03-02T13:33:29;19.30;53.40
13928;DHT22;7036;50.834;4.718;2024-03-02T13:35:57;19.30;53.60
13928;DHT22;7036;50.834;4.718;2024-03-02T13:38:25;19.30;53.60
13928;DHT22;7036;50.834;4.718;2024-03-02T13:40:53;19.30;53.50
13928;DHT22;7036;50.834;4.718;2024-03-02T13:43:21;19.30;53.50
13928;DHT22;7036;50.834;4.718;2024-03-02T13:45:49;19.30;53.40
13928;DHT22;7036;50.834;4.718;2024-03-02T13:48:17;19.40;53.50
13928;DHT22;7036;50.834;4.718;2024-03-02T13:50:44;19.30;53.30
13928;DHT22;7036;50.834;4.718;2024-03-02T13:53:11;19.40;53.40
13928;DHT22;7036;50.834;4.718;2024-03-02T13:55:39;19.50;53.60
13928;DHT22;7036;50.834;4.718;2024-03-02T13:58:06;19.50;53.40
13928;DHT22;7036;50.834;4.718;2024-03-02T14:00:34;19.60;53.60
13928;DHT22;7036;50.834;4.718;2024-03-02T14:03:02;19.60;53.60
13928;DHT22;7036;50.834;4.718;2024-03-02T14:05:29;19.60;53.50
13928;DHT22;7036;50.834;4.718;2024-03-02T14:07:57;19.60;53.50
13928;DHT22;7036;50.834;4.718;2024-03-02T14:10:24;19.70;53.60
13928;DHT22;7036;50.834;4.718;2024-03-02T14:12:51;19.70;53.50
13928;DHT22;7036;50.834;4.718;2024-03-02T14:15:19;19.70;53.60
13928;DHT22;7036;50.834;4.718;2024-03-02T14:17:46;19.70;53.60
13928;DHT22;7036;50.834;4.718;2024-03-02T14:20:14;19.70;53.50
13928;DHT22;7036;50.834;4.718;2024-03-02T14:22:43;19.70;53.40
13928;DHT22;7036;50.834;4.718;2024-03-02T14:25:09;19.70;53.30
13928;DHT22;7036;50.834;4.718;2024-03-02T14:27:37;19.70;53.40
13928;DHT22;7036;50.834;4.718;2024-03-02T14:30:05;19.70;53.50
13928;DHT22;7036;50.834;4.718;2024-03-02T14:32:32;19.70;53.50
13928;DHT22;7036;50.834;4.718;2024-03-02T14:34:59;19.70;53.40
13928;DHT22;7036;50.834;4.718;2024-03-02T14:37:26;19.70;53.40
13928;DHT22;7036;50.834;4.718;2024-03-02T14:39:53;19.80;53.60
13928;DHT22;7036;50.834;4.718;2024-03-02T14:42:21;19.80;53.70
13928;DHT22;7036;50.834;4.718;2024-03-02T14:44:51;19.70;53.60
13928;DHT22;7036;50.834;4.718;2024-03-02T14:47:18;19.70;53.40
13928;DHT22;7036;50.834;4.718;2024-03-02T14:49:45;19.70;53.20
13928;DHT22;7036;50.834;4.718;2024-03-02T14:52:13;19.70;53.20
13928;DHT22;7036;50.834;4.718;2024-03-02T14:54:41;19.70;53.20
13928;DHT22;7036;50.834;4.718;2024-03-02T14:57:09;19.70;53.20
13928;DHT22;7036;50.834;4.718;2024-03-02T14:59:36;19.70;53.10
13928;DHT22;7036;50.834;4.718;2024-03-02T15:02:03;19.70;53.10
13928;DHT22;7036;50.834;4.718;2024-03-02T15:04:30;19.70;53.00
13928;DHT22;7036;50.834;4.718;2024-03-02T15:06:58;19.70;53.00
13928;DHT22;7036;50.834;4.718;2024-03-02T15:09:25;19.70;53.10
13928;DHT22;7036;50.834;4.718;2024-03-02T15:11:53;19.80;53.40
13928;DHT22;7036;50.834;4.718;2024-03-02T15:14:21;19.80;53.60
13928;DHT22;7036;50.834;4.718;2024-03-02T15:16:47;19.80;53.90
13928;DHT22;7036;50.834;4.718;2024-03-02T15:19:15;19.80;54.00
13928;DHT22;7036;50.834;4.718;2024-03-02T15:21:42;19.90;54.20
13928;DHT22;7036;50.834;4.718;2024-03-02T15:24:10;19.90;54.40
13928;DHT22;7036;50.834;4.718;2024-03-02T15:26:39;19.90;54.40
13928;DHT22;7036;50.834;4.718;2024-03-02T15:29:07;19.90;54.20
13928;DHT22;7036;50.834;4.718;2024-03-02T15:31:35;19.90;54.20
13928;DHT22;7036;50.834;4.718;2024-03-02T15:34:02;19.90;54.20
13928;DHT22;7036;50.834;4.718;2024-03-02T15:36:29;19.90;54.10
13928;DHT22;7036;50.834;4.718;2024-03-02T15:38:57;19.90;54.00
13928;DHT22;7036;50.834;4.718;2024-03-02T15:41:25;19.90;53.80
13928;DHT22;7036;50.834;4.718;2024-03-02T15:43:53;19.90;53.60
13928;DHT22;7036;50.834;4.718;2024-03-02T15:46:21;19.90;53.60
13928;DHT22;7036;50.834;4.718;2024-03-02T15:48:49;19.90;53.50
13928;DHT22;7036;50.834;4.718;2024-03-02T15:51:17;19.90;53.50